createdAt,value
2018-01-12T00:00:51.918Z,23.40
2018-01-12T00:03:24.348Z,26.87
2018-01-12T00:05:55.802Z,31.23
2018-01-12T00:08:27.395Z,29.53
2018-01-12T00:10:59.221Z,29.47
2018-01-12T00:13:30.801Z,37.77
2018-01-12T00:16:02.376Z,43.13
2018-01-12T00:18:34.329Z,22.70
2018-01-12T00:21:05.974Z,21.03
2018-01-12T00:23:37.982Z,31.23
2018-01-12T00:26:09.499Z,26.23
2018-01-12T00:28:40.791Z,23.00
2018-01-12T00:31:12.982Z,21.27
2018-01-12T00:33:45.335Z,22.77
2018-01-12T00:37:20.581Z,22.20
2018-01-12T00:39:52.777Z,23.33
2018-01-12T00:42:25.587Z,21.17
2018-01-12T00:45:00.268Z,21.17
2018-01-12T00:47:32.519Z,22.67
2018-01-12T00:50:05.308Z,20.20
2018-01-12T00:52:37.191Z,22.47
2018-01-12T00:55:10.710Z,21.33
2018-01-12T00:57:43.364Z,22.27
2018-01-12T01:00:15.562Z,22.00
2018-01-12T01:02:48.201Z,21.30
2018-01-12T01:05:20.081Z,22.77
2018-01-12T01:07:51.554Z,21.90
2018-01-12T01:10:25.212Z,19.97
2018-01-12T01:12:56.778Z,22.47
2018-01-12T01:15:28.850Z,20.60
2018-01-12T01:18:00.195Z,26.30
2018-01-12T01:20:32.002Z,27.10
2018-01-12T01:23:03.358Z,35.70
2018-01-12T01:25:34.667Z,29.90
2018-01-12T01:28:06.684Z,38.93
2018-01-12T01:30:38.240Z,24.40
2018-01-12T01:33:09.881Z,23.30
2018-01-12T01:35:42.658Z,23.30
2018-01-12T01:38:15.283Z,22.97
2018-01-12T01:40:47.385Z,40.20
2018-01-12T01:43:19.578Z,26.13
2018-01-12T01:45:51.179Z,32.47
2018-01-12T01:48:31.837Z,38.13
2018-01-12T01:51:04.061Z,32.03
2018-01-12T01:53:36.448Z,51.90
2018-01-12T01:56:08.319Z,40.87
2018-01-12T01:58:40.039Z,27.93
2018-01-12T02:01:13.392Z,26.60
2018-01-12T02:03:45.127Z,48.03
2018-01-12T02:06:17.218Z,49.40
2018-01-12T02:08:49.676Z,37.20
2018-01-12T02:11:21.379Z,54.30
2018-01-12T02:13:52.883Z,27.73
2018-01-12T02:16:24.447Z,29.07
2018-01-12T02:18:56.214Z,26.53
2018-01-12T02:21:28.589Z,23.07
2018-01-12T02:24:00.486Z,24.60
2018-01-12T02:26:32.241Z,23.73
2018-01-12T02:29:04.003Z,23.67
2018-01-12T02:31:36.324Z,24.93
2018-01-12T02:34:08.075Z,22.73
2018-01-12T02:36:39.966Z,23.23
2018-01-12T02:39:11.272Z,24.53
2018-01-12T02:41:42.642Z,43.30
2018-01-12T02:44:15.377Z,29.23
2018-01-12T02:46:46.996Z,35.97
2018-01-12T02:49:19.263Z,118.30
2018-01-12T02:51:52.593Z,55.80
2018-01-12T02:54:24.447Z,29.60
2018-01-12T02:56:57.316Z,26.17
2018-01-12T02:59:30.659Z,45.57
2018-01-12T03:02:02.714Z,24.67
2018-01-12T03:04:34.040Z,26.03
2018-01-12T03:07:06.127Z,27.83
2018-01-12T03:09:37.893Z,25.57
2018-01-12T03:12:09.989Z,25.23
2018-01-12T03:14:41.364Z,28.03
2018-01-12T03:17:13.016Z,25.33
2018-01-12T03:19:44.862Z,22.83
2018-01-12T03:22:16.755Z,21.50
2018-01-12T03:24:48.459Z,24.63
2018-01-12T03:27:21.073Z,27.23
2018-01-12T03:29:52.772Z,26.63
2018-01-12T03:32:24.413Z,26.70
2018-01-12T03:34:56.231Z,23.93
2018-01-12T03:37:28.083Z,26.83
2018-01-12T03:40:00.257Z,26.07
2018-01-12T03:42:32.044Z,25.33
2018-01-12T03:45:04.244Z,26.93
2018-01-12T03:47:35.991Z,25.30
2018-01-12T03:50:07.355Z,26.70
2018-01-12T03:52:38.718Z,28.97
2018-01-12T03:55:12.141Z,82.53
2018-01-12T03:57:43.866Z,28.30
2018-01-12T04:00:16.237Z,32.00
2018-01-12T04:02:48.377Z,31.40
2018-01-12T04:05:19.924Z,27.37
2018-01-12T04:07:51.349Z,45.37
2018-01-12T04:10:29.108Z,36.13
2018-01-12T04:13:00.935Z,30.37
2018-01-12T04:15:32.332Z,29.13
2018-01-12T04:18:04.735Z,44.73
2018-01-12T04:20:39.900Z,28.10
2018-01-12T04:23:11.578Z,48.30
2018-01-12T04:25:43.728Z,34.23
2018-01-12T04:28:15.135Z,48.17
2018-01-12T04:30:46.894Z,28.97
2018-01-12T04:33:19.047Z,30.40
2018-01-12T04:35:50.412Z,38.80
2018-01-12T04:38:21.622Z,29.20
2018-01-12T04:40:53.273Z,33.67
2018-01-12T04:43:24.621Z,28.73
2018-01-12T04:45:56.096Z,35.37
2018-01-12T04:48:28.466Z,41.17
2018-01-12T04:50:59.897Z,30.53
2018-01-12T04:53:31.493Z,32.40
2018-01-12T04:56:03.688Z,38.10
2018-01-12T04:58:35.374Z,28.93
2018-01-12T05:01:06.887Z,28.43
2018-01-12T05:03:39.130Z,28.03
2018-01-12T05:06:11.487Z,35.00
2018-01-12T05:08:43.326Z,36.40
2018-01-12T05:11:14.616Z,30.43
2018-01-12T05:13:45.819Z,32.37
2018-01-12T05:16:18.043Z,30.33
2018-01-12T05:18:50.056Z,33.60
2018-01-12T05:21:21.850Z,40.73
2018-01-12T05:23:53.208Z,56.87
2018-01-12T05:26:24.552Z,40.90
2018-01-12T05:28:56.230Z,41.37
2018-01-12T05:31:27.896Z,36.50
2018-01-12T05:33:59.150Z,36.97
2018-01-12T05:36:31.379Z,43.73
2018-01-12T05:39:03.403Z,41.10
2018-01-12T05:41:34.668Z,44.40
2018-01-12T05:44:07.009Z,39.20
2018-01-12T05:46:39.781Z,40.10
2018-01-12T05:49:13.383Z,50.17
2018-01-12T05:51:49.444Z,42.67
2018-01-12T05:54:22.320Z,40.53
2018-01-12T05:56:54.887Z,38.83
2018-01-12T05:59:27.830Z,41.73
2018-01-12T06:08:32.058Z,42.90
2018-01-12T06:11:03.794Z,41.87
2018-01-12T06:13:35.227Z,48.73
2018-01-12T06:16:08.125Z,44.70
2018-01-12T06:18:40.027Z,43.37
2018-01-12T06:21:12.400Z,45.83
2018-01-12T06:23:44.939Z,49.50
2018-01-12T06:26:17.210Z,44.33
2018-01-12T06:28:50.009Z,45.00
2018-01-12T06:31:21.784Z,44.00
2018-01-12T06:33:54.697Z,41.73
2018-01-12T06:36:29.517Z,44.53
2018-01-12T06:39:01.139Z,46.27
2018-01-12T06:41:32.741Z,42.20
2018-01-12T06:44:04.655Z,41.80
2018-01-12T06:46:35.934Z,39.03
2018-01-12T06:49:09.351Z,50.27
2018-01-12T06:51:40.882Z,50.47
2018-01-12T06:54:23.044Z,43.87
2018-01-12T06:56:54.876Z,40.23
2018-01-12T06:59:30.270Z,47.80
2018-01-12T07:02:02.231Z,42.10
2018-01-12T07:04:33.681Z,45.77
2018-01-12T07:07:05.617Z,50.77
2018-01-12T07:09:37.705Z,45.83
2018-01-12T07:12:10.332Z,44.77
2018-01-12T07:14:50.399Z,54.30
2018-01-12T07:17:23.693Z,51.30
2018-01-12T07:19:56.399Z,47.63
2018-01-12T07:22:36.993Z,50.83
2018-01-12T07:25:08.917Z,50.73
2018-01-12T07:27:42.743Z,47.43
2018-01-12T07:30:15.791Z,53.93
2018-01-12T07:32:47.380Z,50.93
2018-01-12T07:35:20.432Z,46.47
2018-01-12T07:37:53.105Z,53.47
2018-01-12T07:40:31.827Z,47.73
2018-01-12T07:43:03.653Z,53.30
2018-01-12T07:45:35.638Z,48.83
2018-01-12T07:48:07.574Z,45.00
2018-01-12T07:50:38.861Z,49.00
2018-01-12T07:53:14.190Z,48.00
2018-01-12T07:55:47.727Z,49.97
2018-01-12T07:58:20.232Z,48.50
2018-01-12T08:00:57.276Z,50.70
2018-01-12T08:03:28.632Z,45.93
2018-01-12T08:06:00.903Z,56.17
2018-01-12T08:08:32.572Z,46.30
2018-01-12T08:11:05.632Z,46.13
2018-01-12T08:13:37.188Z,50.63
2018-01-12T08:16:08.580Z,51.00
2018-01-12T08:18:40.152Z,48.43
2018-01-12T08:21:12.444Z,54.33
2018-01-12T08:23:44.416Z,52.70
2018-01-12T08:26:17.057Z,52.20
2018-01-12T08:28:49.913Z,52.70
2018-01-12T08:31:22.003Z,45.00
2018-01-12T08:33:53.680Z,49.77
2018-01-12T08:36:25.161Z,46.60
2018-01-12T08:38:56.732Z,58.97
2018-01-12T08:41:28.050Z,55.23
2018-01-12T08:44:03.793Z,50.90
2018-01-12T08:46:35.420Z,47.67
2018-01-12T08:49:08.409Z,60.67
2018-01-12T08:51:40.455Z,55.70
2018-01-12T08:54:11.782Z,47.90
2018-01-12T08:56:44.271Z,43.43
2018-01-12T08:59:16.960Z,44.27
2018-01-12T09:01:49.887Z,55.73
2018-01-12T09:04:22.343Z,49.30
2018-01-12T09:06:57.255Z,43.30
2018-01-12T09:09:30.416Z,57.43
2018-01-12T09:12:01.882Z,47.23
2018-01-12T09:14:42.080Z,46.20
2018-01-12T09:17:14.120Z,49.30
2018-01-12T09:19:50.952Z,51.57
2018-01-12T09:22:30.622Z,47.37
2018-01-12T09:25:06.592Z,47.20
2018-01-12T09:27:39.256Z,48.33
2018-01-12T09:30:13.412Z,60.20
2018-01-12T09:32:46.286Z,54.37
2018-01-12T09:35:17.439Z,43.47
2018-01-12T09:37:49.059Z,41.70
2018-01-12T09:40:23.082Z,50.80
2018-01-12T09:42:54.209Z,39.13
2018-01-12T09:45:26.739Z,34.37
2018-01-12T09:48:07.020Z,35.77
2018-01-12T09:50:38.889Z,44.63
2018-01-12T09:53:12.002Z,44.80
2018-01-12T09:55:44.101Z,39.27
2018-01-12T09:58:15.843Z,56.33
2018-01-12T10:00:50.524Z,41.03
2018-01-12T10:03:23.448Z,36.93
2018-01-12T10:05:55.748Z,39.03
2018-01-12T10:08:28.501Z,37.63
2018-01-12T10:10:59.785Z,34.13
2018-01-12T10:13:32.098Z,31.80
2018-01-12T10:16:03.357Z,31.60
2018-01-12T10:18:38.542Z,33.07
2018-01-12T10:21:12.466Z,28.93
2018-01-12T10:23:43.953Z,31.43
2018-01-12T10:26:16.087Z,30.77
2018-01-12T10:28:57.901Z,34.40
2018-01-12T10:31:36.316Z,29.93
2018-01-12T10:34:10.649Z,29.07
2018-01-12T10:36:48.400Z,29.87
2018-01-12T10:39:27.632Z,27.77
2018-01-12T10:42:06.373Z,31.23
2018-01-12T10:44:37.761Z,32.67
2018-01-12T10:47:19.295Z,33.70
2018-01-12T10:49:59.988Z,26.30
2018-01-12T10:52:35.181Z,26.17
2018-01-12T10:55:08.669Z,26.33
2018-01-12T10:57:40.141Z,25.17
2018-01-12T11:00:22.185Z,25.93
2018-01-12T11:02:55.919Z,22.70
2018-01-12T11:05:27.694Z,23.63
2018-01-12T11:07:59.194Z,20.23
2018-01-12T11:10:30.843Z,19.40
2018-01-12T11:13:02.959Z,19.60
2018-01-12T11:15:36.529Z,21.93
2018-01-12T11:18:10.060Z,30.40
2018-01-12T11:20:43.948Z,22.70
2018-01-12T11:23:16.419Z,22.07
2018-01-12T11:25:49.437Z,21.30
2018-01-12T11:28:22.688Z,18.30
2018-01-12T11:30:54.943Z,19.17
2018-01-12T11:33:26.171Z,18.00
2018-01-12T11:35:57.915Z,19.70
2018-01-12T11:38:29.176Z,20.17
2018-01-12T11:41:00.398Z,19.37
2018-01-12T11:43:32.016Z,18.20
2018-01-12T11:46:03.141Z,17.30
2018-01-12T11:48:34.416Z,19.20
2018-01-12T11:51:06.235Z,21.53
2018-01-12T11:53:38.002Z,19.73
2018-01-12T11:56:09.855Z,21.47
2018-01-12T11:58:42.372Z,22.57
2018-01-12T12:01:17.105Z,22.30
2018-01-12T12:03:49.400Z,28.50
2018-01-12T12:06:21.952Z,33.80
2018-01-12T12:08:54.793Z,31.67
2018-01-12T12:11:27.874Z,32.50
2018-01-12T12:14:00.262Z,37.07
2018-01-12T12:16:34.463Z,36.50
2018-01-12T12:19:07.246Z,31.30
2018-01-12T12:21:40.509Z,32.70
2018-01-12T12:24:12.903Z,33.57
2018-01-12T12:26:43.951Z,34.87
2018-01-12T12:29:18.090Z,35.77
2018-01-12T12:31:57.492Z,39.03
2018-01-12T12:34:28.896Z,38.97
2018-01-12T12:37:08.216Z,38.57
2018-01-12T12:39:41.324Z,39.73
2018-01-12T12:42:12.915Z,41.33
2018-01-12T12:44:45.310Z,39.80
2018-01-12T12:47:17.500Z,43.33
2018-01-12T12:49:50.140Z,42.83
2018-01-12T12:52:23.382Z,40.23
2018-01-12T12:54:54.620Z,37.47
2018-01-12T12:57:27.108Z,40.13
2018-01-12T12:59:58.461Z,37.73
2018-01-12T13:02:31.275Z,41.10
2018-01-12T13:05:04.891Z,40.07
2018-01-12T13:07:36.212Z,41.33
2018-01-12T13:10:11.379Z,34.43
2018-01-12T13:12:43.184Z,37.70
2018-01-12T13:15:18.410Z,41.10
2018-01-12T13:17:52.798Z,35.57
2018-01-12T13:20:25.681Z,37.10
2018-01-12T13:22:56.840Z,38.40
2018-01-12T13:25:28.580Z,35.23
2018-01-12T13:28:00.899Z,32.83
2018-01-12T13:30:32.200Z,32.53
2018-01-12T13:33:05.621Z,30.47
2018-01-12T13:35:36.795Z,29.33
2018-01-12T13:38:08.184Z,28.97
2018-01-12T13:40:41.645Z,23.93
2018-01-12T13:43:13.400Z,25.37
2018-01-12T13:45:44.940Z,25.30
2018-01-12T13:48:16.152Z,24.10
2018-01-12T13:50:51.202Z,23.67
2018-01-12T13:53:23.116Z,22.97
2018-01-12T13:55:56.431Z,25.13
2018-01-12T13:58:29.588Z,25.20
2018-01-12T14:01:01.728Z,26.83
2018-01-12T14:03:33.691Z,25.87
2018-01-12T14:06:07.341Z,24.43
2018-01-12T14:08:40.537Z,27.00
2018-01-12T14:11:13.993Z,25.37
2018-01-12T14:13:46.723Z,25.47
2018-01-12T14:16:22.083Z,28.07
2018-01-12T14:18:56.698Z,25.97
2018-01-12T14:21:31.399Z,27.00
2018-01-12T14:24:09.026Z,29.27
2018-01-12T14:26:41.923Z,33.63
2018-01-12T14:29:22.102Z,34.83
2018-01-12T14:31:54.564Z,34.87
2018-01-12T14:34:29.044Z,38.47
2018-01-12T14:37:02.420Z,39.50
2018-01-12T14:39:34.712Z,36.60
2018-01-12T14:42:07.549Z,32.97
2018-01-12T14:44:39.412Z,36.83
2018-01-12T14:47:12.479Z,35.13
2018-01-12T14:49:45.259Z,36.77
2018-01-12T14:52:17.098Z,34.70
2018-01-12T14:54:52.623Z,37.87
2018-01-12T14:57:24.804Z,37.03
2018-01-12T14:59:57.212Z,38.47
2018-01-12T15:05:24.284Z,38.90
2018-01-12T15:07:58.024Z,39.50
2018-01-12T15:10:33.217Z,38.50
2018-01-12T15:13:14.363Z,40.80
2018-01-12T15:15:46.654Z,40.10
2018-01-12T15:18:19.606Z,43.43
2018-01-12T15:20:53.419Z,36.30
2018-01-12T15:23:27.818Z,35.73
2018-01-12T15:26:03.443Z,38.23
2018-01-12T15:28:35.440Z,38.33
2018-01-12T15:31:11.907Z,35.93
2018-01-12T15:33:44.848Z,40.50
2018-01-12T16:52:39.814Z,46.77
2018-01-12T16:55:11.778Z,47.57
2018-01-12T16:57:46.792Z,54.10
2018-01-12T17:00:19.686Z,53.33
2018-01-12T17:02:51.402Z,53.00
2018-01-12T17:05:24.549Z,51.90
2018-01-12T17:07:57.706Z,49.50
2018-01-12T17:10:30.099Z,60.50
2018-01-12T17:13:03.503Z,52.70
2018-01-12T17:15:34.907Z,50.57
2018-01-12T17:18:07.194Z,60.07
2018-01-12T17:20:39.087Z,55.57
2018-01-12T17:23:11.465Z,56.60
2018-01-12T17:25:43.016Z,56.40
2018-01-12T17:28:14.775Z,60.40
2018-01-12T17:30:49.530Z,59.57
2018-01-12T17:33:22.308Z,62.10
2018-01-12T17:35:55.086Z,61.03
2018-01-12T17:38:27.436Z,61.83
2018-01-12T17:40:59.473Z,64.50
2018-01-12T17:43:31.989Z,60.27
2018-01-12T17:46:06.861Z,65.97
2018-01-12T17:48:39.044Z,57.00
2018-01-12T17:51:10.631Z,56.13
2018-01-12T17:53:44.029Z,59.47
2018-01-12T17:56:16.465Z,59.87
2018-01-12T17:58:48.171Z,64.37
2018-01-12T18:01:23.893Z,59.80
2018-01-12T18:03:57.670Z,56.30
2018-01-12T18:06:29.237Z,62.10
2018-01-12T18:09:00.515Z,62.10
2018-01-12T18:11:32.108Z,59.10
2018-01-12T18:14:05.725Z,67.40
2018-01-12T18:16:38.632Z,60.90
2018-01-12T18:19:10.415Z,67.90
2018-01-12T18:21:42.694Z,66.33
2018-01-12T18:24:16.862Z,69.60
2018-01-12T18:26:50.634Z,61.23
2018-01-12T18:29:23.090Z,74.30
2018-01-12T18:31:56.162Z,73.23
2018-01-12T18:34:28.178Z,80.50
2018-01-12T18:37:02.288Z,68.53
2018-01-12T18:39:33.631Z,80.80
2018-01-12T18:42:07.404Z,63.63
2018-01-12T18:44:39.619Z,67.03
2018-01-12T18:47:11.256Z,59.40
2018-01-12T18:49:44.921Z,47.50
2018-01-12T18:52:17.332Z,49.20
2018-01-12T18:54:51.813Z,45.23
2018-01-12T18:57:23.890Z,47.43
2018-01-12T18:59:57.200Z,43.67
2018-01-12T19:02:29.462Z,43.33
2018-01-12T19:05:01.254Z,40.47
2018-01-12T19:10:18.163Z,40.43
2018-01-12T19:12:57.215Z,42.60
2018-01-12T19:15:30.289Z,40.53
2018-01-12T19:18:01.988Z,37.80
2018-01-12T19:20:33.890Z,33.73
2018-01-12T19:23:05.334Z,38.80
2018-01-12T19:25:36.477Z,41.83
2018-01-12T19:28:08.908Z,44.17
2018-01-12T19:30:41.222Z,47.53
2018-01-12T19:33:16.540Z,44.97
2018-01-12T19:35:48.310Z,43.53
2018-01-12T19:38:19.557Z,45.00
2018-01-12T19:40:50.890Z,43.67
2018-01-12T19:43:23.932Z,39.10
2018-01-12T19:45:59.353Z,46.17
2018-01-12T19:48:32.313Z,38.90
2018-01-12T19:51:04.022Z,35.60
2018-01-12T19:53:36.295Z,37.73
2018-01-12T19:56:10.176Z,33.97
2018-01-12T19:58:42.296Z,30.40
2018-01-12T20:03:47.590Z,34.53
2018-01-12T20:06:25.065Z,37.17
2018-01-12T20:15:29.575Z,31.60
2018-01-12T20:19:23.368Z,30.63
2018-01-12T20:22:44.840Z,30.60
2018-01-12T20:25:20.554Z,30.80
2018-01-12T20:27:53.808Z,34.70
2018-01-12T20:30:54.400Z,30.77
2018-01-12T20:40:01.510Z,26.77
2018-01-12T20:42:36.809Z,32.13
2018-01-12T20:45:10.613Z,33.07
2018-01-12T21:12:35.156Z,29.03
2018-01-12T21:15:33.401Z,29.30
2018-01-12T21:21:39.678Z,28.43
2018-01-12T21:24:11.908Z,25.73
2018-01-12T21:26:46.052Z,29.00
2018-01-12T21:29:20.584Z,32.70
2018-01-12T21:31:53.935Z,29.87
2018-01-12T21:34:26.659Z,27.97
2018-01-12T21:37:00.015Z,28.77
2018-01-12T21:39:32.737Z,27.57
2018-01-12T21:42:05.024Z,29.27
2018-01-12T21:44:37.737Z,28.97
2018-01-12T21:47:10.424Z,33.17
2018-01-12T21:49:51.242Z,30.20
2018-01-12T21:52:22.912Z,28.50
2018-01-12T21:54:55.855Z,32.13
2018-01-12T21:57:27.915Z,31.10
2018-01-12T22:00:30.511Z,31.33
2018-01-12T22:03:02.989Z,31.87
2018-01-12T22:05:42.606Z,36.83
2018-01-12T22:08:14.938Z,35.50
2018-01-12T22:10:50.164Z,36.97
2018-01-12T22:13:22.467Z,37.00
2018-01-12T22:15:55.490Z,39.93
2018-01-12T22:18:28.316Z,46.10
2018-01-12T22:21:01.073Z,37.83
2018-01-12T22:23:32.486Z,41.47
2018-01-12T22:26:03.871Z,37.30
2018-01-12T22:28:35.545Z,43.80
2018-01-12T22:31:07.742Z,43.20
2018-01-12T22:33:40.802Z,44.30
2018-01-12T22:36:14.613Z,44.93
2018-01-12T22:38:48.365Z,45.43
2018-01-12T22:41:21.609Z,45.53
2018-01-12T22:43:55.319Z,44.10
2018-01-12T22:46:26.467Z,46.60
2018-01-12T22:49:00.404Z,44.73
2018-01-12T22:51:32.603Z,48.17
2018-01-12T22:54:03.980Z,53.07
2018-01-12T22:56:36.760Z,61.70
2018-01-12T22:59:08.168Z,48.53
2018-01-12T23:01:41.288Z,55.23
2018-01-12T23:04:16.339Z,48.40
2018-01-12T23:06:48.980Z,50.37
2018-01-12T23:09:22.859Z,55.83
2018-01-12T23:11:59.023Z,62.23
2018-01-12T23:14:35.681Z,57.83
2018-01-12T23:17:11.318Z,53.20
2018-01-12T23:19:47.394Z,49.60
2018-01-12T23:22:20.837Z,53.27
2018-01-12T23:24:56.804Z,50.13
2018-01-12T23:27:28.665Z,56.50
2018-01-12T23:30:00.784Z,55.77
2018-01-12T23:32:32.082Z,60.47
2018-01-12T23:35:03.355Z,53.13
2018-01-12T23:37:35.112Z,61.30
2018-01-12T23:40:06.699Z,57.47
2018-01-12T23:42:38.806Z,57.00
2018-01-12T23:45:10.747Z,65.03
2018-01-12T23:47:41.932Z,54.50
2018-01-12T23:50:15.039Z,53.63
2018-01-12T23:52:47.100Z,54.43
2018-01-12T23:55:19.143Z,51.47
2018-01-12T23:57:52.538Z,54.80
